sensor_id;sensor_type;location;lat;lon;timestamp;pressure;altitude;pressure_sealevel;temperature;humidity
51239;BME280;38154;47.548;18.828;2023-04-25T00:01:15;97745.59;;;10.63;100.00
51239;BME280;38154;47.548;18.828;2023-04-25T00:03:40;97744.72;;;10.64;100.00
51239;BME280;38154;47.548;18.828;2023-04-25T00:06:06;97737.00;;;10.56;100.00
51239;BME280;38154;47.548;18.828;2023-04-25T00:08:32;97734.63;;;10.43;100.00
51239;BME280;38154;47.548;18.828;2023-04-25T00:10:58;97728.44;;;10.48;100.00
51239;BME280;38154;47.548;18.828;2023-04-25T00:13:24;97737.09;;;10.50;100.00
51239;BME280;38154;47.548;18.828;2023-04-25T00:15:51;97741.47;;;10.48;100.00
51239;BME280;38154;47.548;18.828;2023-04-25T00:18:18;97738.94;;;10.42;100.00
51239;BME280;38154;47.548;18.828;2023-04-25T00:20:44;97725.84;;;10.47;100.00
51239;BME280;38154;47.548;18.828;2023-04-25T00:23:21;97734.63;;;10.41;100.00
51239;BME280;38154;47.548;18.828;2023-04-25T00:25:47;97731.25;;;10.34;100.00
51239;BME280;38154;47.548;18.828;2023-04-25T00:28:13;97735.63;;;10.32;100.00
51239;BME280;38154;47.548;18.828;2023-04-25T00:30:39;97732.97;;;10.35;100.00
51239;BME280;38154;47.548;18.828;2023-04-25T00:33:05;97743.44;;;10.32;100.00
51239;BME280;38154;47.548;18.828;2023-04-25T00:35:31;97733.03;;;10.29;100.00
51239;BME280;38154;47.548;18.828;2023-04-25T00:37:56;97732.06;;;10.38;100.00
51239;BME280;38154;47.548;18.828;2023-04-25T00:40:22;97725.22;;;10.29;100.00
51239;BME280;38154;47.548;18.828;2023-04-25T00:42:48;97724.28;;;10.36;100.00
51239;BME280;38154;47.548;18.828;2023-04-25T00:45:14;97730.31;;;10.38;100.00
51239;BME280;38154;47.548;18.828;2023-04-25T00:47:41;97723.41;;;10.36;100.00
51239;BME280;38154;47.548;18.828;2023-04-25T00:50:07;97717.38;;;10.31;100.00
51239;BME280;38154;47.548;18.828;2023-04-25T00:52:33;97716.50;;;10.30;100.00
51239;BME280;38154;47.548;18.828;2023-04-25T00:54:58;97720.84;;;10.33;100.00
51239;BME280;38154;47.548;18.828;2023-04-25T00:57:24;97716.50;;;10.32;100.00
51239;BME280;38154;47.548;18.828;2023-04-25T00:59:51;97705.22;;;10.31;100.00
51239;BME280;38154;47.548;18.828;2023-04-25T01:02:17;97709.72;;;10.20;100.00
51239;BME280;38154;47.548;18.828;2023-04-25T01:04:43;97705.56;;;10.07;100.00
51239;BME280;38154;47.548;18.828;2023-04-25T01:07:09;97707.28;;;10.08;100.00
51239;BME280;38154;47.548;18.828;2023-04-25T01:09:35;97711.66;;;10.07;100.00
51239;BME280;38154;47.548;18.828;2023-04-25T01:12:01;97703.00;;;10.02;100.00
51239;BME280;38154;47.548;18.828;2023-04-25T01:14:27;97706.56;;;9.98;100.00
51239;BME280;38154;47.548;18.828;2023-04-25T01:16:52;97694.38;;;10.00;100.00
51239;BME280;38154;47.548;18.828;2023-04-25T01:19:18;97700.47;;;9.99;100.00
51239;BME280;38154;47.548;18.828;2023-04-25T01:21:44;97692.66;;;9.99;100.00
51239;BME280;38154;47.548;18.828;2023-04-25T01:24:11;97690.09;;;9.96;100.00
51239;BME280;38154;47.548;18.828;2023-04-25T01:26:37;97691.81;;;9.95;100.00
51239;BME280;38154;47.548;18.828;2023-04-25T01:29:04;97690.19;;;9.88;100.00
51239;BME280;38154;47.548;18.828;2023-04-25T01:31:30;97688.56;;;9.81;100.00
51239;BME280;38154;47.548;18.828;2023-04-25T01:33:57;97684.22;;;9.80;100.00
51239;BME280;38154;47.548;18.828;2023-04-25T01:36:22;97684.22;;;9.80;100.00
51239;BME280;38154;47.548;18.828;2023-04-25T01:38:48;97689.44;;;9.77;100.00
51239;BME280;38154;47.548;18.828;2023-04-25T01:41:14;97686.03;;;9.75;100.00
51239;BME280;38154;47.548;18.828;2023-04-25T01:43:40;97689.59;;;9.68;100.00
51239;BME280;38154;47.548;18.828;2023-04-25T01:46:06;97681.72;;;9.72;100.00
51239;BME280;38154;47.548;18.828;2023-04-25T01:48:31;97683.50;;;9.69;100.00
51239;BME280;38154;47.548;18.828;2023-04-25T01:50:57;97676.50;;;9.74;100.00
51239;BME280;38154;47.548;18.828;2023-04-25T01:53:23;97678.34;;;9.65;100.00
51239;BME280;38154;47.548;18.828;2023-04-25T01:55:49;97679.19;;;9.68;100.00
51239;BME280;38154;47.548;18.828;2023-04-25T01:58:14;97684.37;;;9.68;100.00
51239;BME280;38154;47.548;18.828;2023-04-25T02:00:40;97679.19;;;9.66;100.00
51239;BME280;38154;47.548;18.828;2023-04-25T02:03:06;97681.84;;;9.63;100.00
51239;BME280;38154;47.548;18.828;2023-04-25T02:05:36;97685.38;;;9.57;100.00
51239;BME280;38154;47.548;18.828;2023-04-25T02:08:02;97679.28;;;9.57;100.00
51239;BME280;38154;47.548;18.828;2023-04-25T02:10:28;97688.03;;;9.54;100.00
51239;BME280;38154;47.548;18.828;2023-04-25T02:12:54;97674.22;;;9.49;100.00
51239;BME280;38154;47.548;18.828;2023-04-25T02:15:20;97678.63;;;9.42;100.00
51239;BME280;38154;47.548;18.828;2023-04-25T02:17:46;97682.00;;;9.49;100.00
51239;BME280;38154;47.548;18.828;2023-04-25T02:20:12;97677.72;;;9.43;100.00
51239;BME280;38154;47.548;18.828;2023-04-25T02:22:38;97677.81;;;9.39;100.00
51239;BME280;38154;47.548;18.828;2023-04-25T02:25:03;97689.06;;;9.39;100.00
51239;BME280;38154;47.548;18.828;2023-04-25T02:27:30;97683.78;;;9.45;100.00
51239;BME280;38154;47.548;18.828;2023-04-25T02:29:56;97694.25;;;9.39;100.00
51239;BME280;38154;47.548;18.828;2023-04-25T02:32:21;97683.78;;;9.47;100.00
51239;BME280;38154;47.548;18.828;2023-04-25T02:34:47;97688.06;;;9.51;100.00
51239;BME280;38154;47.548;18.828;2023-04-25T02:37:13;97688.00;;;9.57;100.00
51239;BME280;38154;47.548;18.828;2023-04-25T02:39:39;97689.00;;;9.45;100.00
51239;BME280;38154;47.548;18.828;2023-04-25T02:42:05;97686.41;;;9.44;100.00
51239;BME280;38154;47.548;18.828;2023-04-25T02:44:30;97690.72;;;9.45;100.00
51239;BME280;38154;47.548;18.828;2023-04-25T02:46:56;97690.91;;;9.29;100.00
51239;BME280;38154;47.548;18.828;2023-04-25T02:49:22;97685.63;;;9.37;100.00
51239;BME280;38154;47.548;18.828;2023-04-25T02:51:47;97685.50;;;9.45;100.00
51239;BME280;38154;47.548;18.828;2023-04-25T02:54:13;97682.13;;;9.38;100.00
51239;BME280;38154;47.548;18.828;2023-04-25T02:56:38;97686.47;;;9.39;100.00
51239;BME280;38154;47.548;18.828;2023-04-25T02:59:04;97685.50;;;9.45;100.00
51239;BME280;38154;47.548;18.828;2023-04-25T03:01:30;97694.22;;;9.44;100.00
51239;BME280;38154;47.548;18.828;2023-04-25T03:03:55;97685.63;;;9.37;100.00
51239;BME280;38154;47.548;18.828;2023-04-25T03:06:21;97681.31;;;9.32;100.00
51239;BME280;38154;47.548;18.828;2023-04-25T03:08:47;97685.69;;;9.29;100.00
51239;BME280;38154;47.548;18.828;2023-04-25T03:11:12;97689.19;;;9.28;100.00
51239;BME280;38154;47.548;18.828;2023-04-25T03:13:38;97695.28;;;9.24;100.00
51239;BME280;38154;47.548;18.828;2023-04-25T03:16:04;97690.22;;;9.12;100.00
51239;BME280;38154;47.548;18.828;2023-04-25T03:18:30;97687.53;;;9.18;100.00
51239;BME280;38154;47.548;18.828;2023-04-25T03:20:55;97691.09;;;9.09;100.00
51239;BME280;38154;47.548;18.828;2023-04-25T03:23:21;97691.09;;;9.13;100.00
51239;BME280;38154;47.548;18.828;2023-04-25T03:25:47;97687.53;;;9.18;100.00
51239;BME280;38154;47.548;18.828;2023-04-25T03:28:13;97680.62;;;9.19;100.00
51239;BME280;38154;47.548;18.828;2023-04-25T03:30:38;97689.41;;;9.10;100.00
51239;BME280;38154;47.548;18.828;2023-04-25T03:33:04;97692.00;;;9.10;100.00
51239;BME280;38154;47.548;18.828;2023-04-25T03:35:30;97691.94;;;9.12;100.00
51239;BME280;38154;47.548;18.828;2023-04-25T03:37:55;97693.69;;;9.11;100.00
51239;BME280;38154;47.548;18.828;2023-04-25T03:40:21;97697.13;;;9.13;100.00
51239;BME280;38154;47.548;18.828;2023-04-25T03:42:47;97698.06;;;9.09;100.00
51239;BME280;38154;47.548;18.828;2023-04-25T03:45:12;97701.53;;;9.06;100.00
51239;BME280;38154;47.548;18.828;2023-04-25T03:47:38;97700.69;;;9.06;100.00
51239;BME280;38154;47.548;18.828;2023-04-25T03:50:04;97699.87;;;9.01;100.00
51239;BME280;38154;47.548;18.828;2023-04-25T03:52:30;97699.72;;;9.13;100.00
51239;BME280;38154;47.548;18.828;2023-04-25T03:54:55;97697.13;;;9.15;100.00
51239;BME280;38154;47.548;18.828;2023-04-25T03:57:21;97704.13;;;9.08;100.00
51239;BME280;38154;47.548;18.828;2023-04-25T03:59:47;97708.47;;;9.07;100.00
51239;BME280;38154;47.548;18.828;2023-04-25T04:02:12;97706.81;;;9.00;100.00
51239;BME280;38154;47.548;18.828;2023-04-25T04:04:38;97712.84;;;9.02;100.00
51239;BME280;38154;47.548;18.828;2023-04-25T04:07:04;97708.59;;;8.98;100.00
51239;BME280;38154;47.548;18.828;2023-04-25T04:09:29;97707.72;;;8.95;100.00
51239;BME280;38154;47.548;18.828;2023-04-25T04:11:55;97712.91;;;8.98;100.00
51239;BME280;38154;47.548;18.828;2023-04-25T04:14:20;97709.59;;;8.83;100.00
51239;BME280;38154;47.548;18.828;2023-04-25T04:16:46;97710.41;;;8.87;100.00
51239;BME280;38154;47.548;18.828;2023-04-25T04:19:12;97716.47;;;8.86;100.00
51239;BME280;38154;47.548;18.828;2023-04-25T04:21:37;97719.06;;;8.89;100.00
51239;BME280;38154;47.548;18.828;2023-04-25T04:24:03;97718.28;;;8.75;100.00
51239;BME280;38154;47.548;18.828;2023-04-25T04:26:29;97726.16;;;8.68;100.00
51239;BME280;38154;47.548;18.828;2023-04-25T04:28:57;97723.47;;;8.76;100.00
51239;BME280;38154;47.548;18.828;2023-04-25T04:31:24;97727.88;;;8.68;100.00
51239;BME280;38154;47.548;18.828;2023-04-25T04:33:50;97726.06;;;8.79;100.00
51239;BME280;38154;47.548;18.828;2023-04-25T04:36:16;97729.50;;;8.81;100.00
51239;BME280;38154;47.548;18.828;2023-04-25T04:38:45;97733.88;;;8.78;100.00
51239;BME280;38154;47.548;18.828;2023-04-25T04:41:10;97731.28;;;8.76;100.00
51239;BME280;38154;47.548;18.828;2023-04-25T04:43:36;97734.69;;;8.84;100.00
51239;BME280;38154;47.548;18.828;2023-04-25T04:46:02;97731.22;;;8.87;100.00
51239;BME280;38154;47.548;18.828;2023-04-25T04:48:29;97732.88;;;8.94;100.00
51239;BME280;38154;47.548;18.828;2023-04-25T04:50:58;97738.09;;;8.91;100.00
51239;BME280;38154;47.548;18.828;2023-04-25T04:53:23;97727.66;;;8.94;100.00
51239;BME280;38154;47.548;18.828;2023-04-25T04:55:49;97739.84;;;8.87;100.00
51239;BME280;38154;47.548;18.828;2023-04-25T04:58:15;97733.00;;;8.77;100.00
51239;BME280;38154;47.548;18.828;2023-04-25T05:00:41;97733.97;;;8.65;100.00
51239;BME280;38154;47.548;18.828;2023-04-25T05:03:06;97736.63;;;8.58;100.00
51239;BME280;38154;47.548;18.828;2023-04-25T05:05:32;97737.53;;;8.52;100.00
51239;BME280;38154;47.548;18.828;2023-04-25T05:07:58;97734.91;;;8.57;100.00
51239;BME280;38154;47.548;18.828;2023-04-25T05:10:25;97733.19;;;8.56;100.00
51239;BME280;38154;47.548;18.828;2023-04-25T05:12:51;97743.53;;;8.62;100.00
51239;BME280;38154;47.548;18.828;2023-04-25T05:15:17;97734.00;;;8.62;100.00
51239;BME280;38154;47.548;18.828;2023-04-25T05:17:42;97735.75;;;8.62;100.00
51239;BME280;38154;47.548;18.828;2023-04-25T05:20:08;97727.16;;;8.52;100.00
51239;BME280;38154;47.548;18.828;2023-04-25T05:22:35;97731.44;;;8.56;100.00
51239;BME280;38154;47.548;18.828;2023-04-25T05:25:01;97729.66;;;8.63;100.00
51239;BME280;38154;47.548;18.828;2023-04-25T05:27:26;97734.00;;;8.61;100.00
51239;BME280;38154;47.548;18.828;2023-04-25T05:29:52;97725.34;;;8.62;100.00
51239;BME280;38154;47.548;18.828;2023-04-25T05:32:18;97727.94;;;8.62;100.00
51239;BME280;38154;47.548;18.828;2023-04-25T05:34:43;97728.78;;;8.67;100.00
51239;BME280;38154;47.548;18.828;2023-04-25T05:37:09;97727.06;;;8.63;100.00
51239;BME280;38154;47.548;18.828;2023-04-25T05:39:35;97727.06;;;8.63;100.00
51239;BME280;38154;47.548;18.828;2023-04-25T05:42:01;97721.81;;;8.69;100.00
51239;BME280;38154;47.548;18.828;2023-04-25T05:44:27;97719.06;;;8.87;100.00
51239;BME280;38154;47.548;18.828;2023-04-25T05:46:53;97736.41;;;8.88;100.00
51239;BME280;38154;47.548;18.828;2023-04-25T05:49:19;97722.50;;;8.88;100.00
51239;BME280;38154;47.548;18.828;2023-04-25T05:51:44;97716.44;;;8.90;100.00
51239;BME280;38154;47.548;18.828;2023-04-25T05:54:10;97719.81;;;9.02;100.00
51239;BME280;38154;47.548;18.828;2023-04-25T05:56:36;97724.94;;;9.06;100.00
51239;BME280;38154;47.548;18.828;2023-04-25T05:59:01;97720.44;;;9.25;100.00
51239;BME280;38154;47.548;18.828;2023-04-25T06:01:27;97722.13;;;9.28;100.00
51239;BME280;38154;47.548;18.828;2023-04-25T06:03:53;97726.44;;;9.34;100.00
51239;BME280;38154;47.548;18.828;2023-04-25T06:06:18;97717.62;;;9.45;100.00
51239;BME280;38154;47.548;18.828;2023-04-25T06:08:44;97724.31;;;9.63;100.00
51239;BME280;38154;47.548;18.828;2023-04-25T06:11:10;97717.22;;;9.78;100.00
51239;BME280;38154;47.548;18.828;2023-04-25T06:13:36;97722.34;;;9.86;100.00
51239;BME280;38154;47.548;18.828;2023-04-25T06:16:01;97713.56;;;9.93;100.00
51239;BME280;38154;47.548;18.828;2023-04-25T06:18:27;97716.13;;;9.97;100.00
51239;BME280;38154;47.548;18.828;2023-04-25T06:20:53;97725.53;;;10.08;100.00
51239;BME280;38154;47.548;18.828;2023-04-25T06:23:18;97721.81;;;10.24;100.00
51239;BME280;38154;47.548;18.828;2023-04-25T06:25:44;97723.16;;;10.53;100.00
51239;BME280;38154;47.548;18.828;2023-04-25T06:28:10;97722.59;;;10.88;100.00
51239;BME280;38154;47.548;18.828;2023-04-25T06:30:35;97713.59;;;11.06;100.00
51239;BME280;38154;47.548;18.828;2023-04-25T06:33:01;97715.69;;;11.32;100.00
51239;BME280;38154;47.548;18.828;2023-04-25T06:35:27;97722.25;;;11.55;100.00
51239;BME280;38154;47.548;18.828;2023-04-25T06:37:52;97726.19;;;12.18;100.00
51239;BME280;38154;47.548;18.828;2023-04-25T06:40:18;97723.78;;;12.47;100.00
51239;BME280;38154;47.548;18.828;2023-04-25T06:42:44;97723.97;;;12.40;100.00
51239;BME280;38154;47.548;18.828;2023-04-25T06:45:09;97725.03;;;12.32;100.00
51239;BME280;38154;47.548;18.828;2023-04-25T06:47:35;97736.38;;;12.31;100.00
51239;BME280;38154;47.548;18.828;2023-04-25T06:50:01;97720.72;;;12.29;100.00
51239;BME280;38154;47.548;18.828;2023-04-25T06:52:26;97718.97;;;12.67;100.00
51239;BME280;38154;47.548;18.828;2023-04-25T06:54:52;97712.53;;;12.80;100.00
51239;BME280;38154;47.548;18.828;2023-04-25T06:57:18;97721.28;;;12.79;100.00
51239;BME280;38154;47.548;18.828;2023-04-25T06:59:43;97713.91;;;13.28;100.00
51239;BME280;38154;47.548;18.828;2023-04-25T07:02:09;97717.22;;;13.69;100.00
51239;BME280;38154;47.548;18.828;2023-04-25T07:04:35;97714.87;;;13.90;98.45
51239;BME280;38154;47.548;18.828;2023-04-25T07:07:01;97712.41;;;13.84;100.00
51239;BME280;38154;47.548;18.828;2023-04-25T07:09:28;97716.44;;;13.96;100.00
51239;BME280;38154;47.548;18.828;2023-04-25T07:11:54;97718.12;;;13.98;98.39
51239;BME280;38154;47.548;18.828;2023-04-25T07:14:20;97715.88;;;13.86;98.16
51239;BME280;38154;47.548;18.828;2023-04-25T07:16:46;97720.16;;;13.88;100.00
51239;BME280;38154;47.548;18.828;2023-04-25T07:19:12;97726.72;;;13.72;100.00
51239;BME280;38154;47.548;18.828;2023-04-25T07:21:37;97725.91;;;13.39;100.00
51239;BME280;38154;47.548;18.828;2023-04-25T07:24:03;97726.12;;;13.29;100.00
51239;BME280;38154;47.548;18.828;2023-04-25T07:26:29;97721.53;;;13.70;100.00
51239;BME280;38154;47.548;18.828;2023-04-25T07:28:54;97723.16;;;14.34;95.77
51239;BME280;38154;47.548;18.828;2023-04-25T07:31:21;97722.47;;;14.56;93.21
51239;BME280;38154;47.548;18.828;2023-04-25T07:33:47;97726.44;;;15.23;91.21
51239;BME280;38154;47.548;18.828;2023-04-25T07:36:12;97734.91;;;15.56;84.10
51239;BME280;38154;47.548;18.828;2023-04-25T07:38:38;97736.34;;;16.13;82.14
51239;BME280;38154;47.548;18.828;2023-04-25T07:41:04;97739.44;;;16.25;83.78
51239;BME280;38154;47.548;18.828;2023-04-25T07:43:30;97730.59;;;16.04;81.90
51239;BME280;38154;47.548;18.828;2023-04-25T07:45:56;97734.38;;;15.71;85.83
51239;BME280;38154;47.548;18.828;2023-04-25T07:48:21;97728.94;;;15.77;84.00
51239;BME280;38154;47.548;18.828;2023-04-25T07:50:47;97739.63;;;15.97;83.12
51239;BME280;38154;47.548;18.828;2023-04-25T07:53:13;97737.16;;;16.16;82.01
51239;BME280;38154;47.548;18.828;2023-04-25T07:55:39;97738.09;;;15.66;80.80
51239;BME280;38154;47.548;18.828;2023-04-25T07:58:06;97734.22;;;15.26;82.12
51239;BME280;38154;47.548;18.828;2023-04-25T08:00:31;97740.91;;;14.82;85.00
51239;BME280;38154;47.548;18.828;2023-04-25T08:02:57;97732.63;;;14.40;89.56
51239;BME280;38154;47.548;18.828;2023-04-25T08:05:23;97727.09;;;13.91;92.45
51239;BME280;38154;47.548;18.828;2023-04-25T08:07:48;97733.31;;;13.54;91.01
51239;BME280;38154;47.548;18.828;2023-04-25T08:10:14;97735.47;;;13.40;94.49
51239;BME280;38154;47.548;18.828;2023-04-25T08:12:40;97732.59;;;13.49;98.44
51239;BME280;38154;47.548;18.828;2023-04-25T08:15:06;97733.56;;;13.78;97.63
51239;BME280;38154;47.548;18.828;2023-04-25T08:17:31;97735.19;;;13.82;94.12
51239;BME280;38154;47.548;18.828;2023-04-25T08:19:57;97735.63;;;13.98;95.62
51239;BME280;38154;47.548;18.828;2023-04-25T08:22:23;97729.87;;;13.85;93.17
51239;BME280;38154;47.548;18.828;2023-04-25T08:24:48;97738.09;;;14.02;91.41
51239;BME280;38154;47.548;18.828;2023-04-25T08:27:14;97737.84;;;13.80;92.47
51239;BME280;38154;47.548;18.828;2023-04-25T08:29:41;97743.16;;;13.47;96.10
51239;BME280;38154;47.548;18.828;2023-04-25T08:32:06;97745.75;;;13.47;96.83
51239;BME280;38154;47.548;18.828;2023-04-25T08:34:32;97755.59;;;13.39;94.97
51239;BME280;38154;47.548;18.828;2023-04-25T08:36:58;97755.31;;;13.14;96.03
51239;BME280;38154;47.548;18.828;2023-04-25T08:39:24;97765.34;;;12.96;99.76
51239;BME280;38154;47.548;18.828;2023-04-25T08:41:50;97766.69;;;12.77;99.48
51239;BME280;38154;47.548;18.828;2023-04-25T08:44:16;97761.88;;;12.96;100.00
51239;BME280;38154;47.548;18.828;2023-04-25T08:46:41;97759.19;;;13.33;100.00
51239;BME280;38154;47.548;18.828;2023-04-25T08:49:07;97767.53;;;13.49;97.57
51239;BME280;38154;47.548;18.828;2023-04-25T08:51:34;97773.16;;;13.67;97.08
51239;BME280;38154;47.548;18.828;2023-04-25T08:54:11;97767.50;;;13.51;99.31
51239;BME280;38154;47.548;18.828;2023-04-25T08:56:44;97771.06;;;13.47;99.65
51239;BME280;38154;47.548;18.828;2023-04-25T08:59:11;97771.31;;;13.38;98.36
51239;BME280;38154;47.548;18.828;2023-04-25T09:01:37;97773.84;;;13.73;98.11
51239;BME280;38154;47.548;18.828;2023-04-25T09:04:02;97761.34;;;14.15;93.01
51239;BME280;38154;47.548;18.828;2023-04-25T09:06:29;97771.53;;;14.54;89.67
51239;BME280;38154;47.548;18.828;2023-04-25T09:09:05;97765.38;;;14.55;91.83
51239;BME280;38154;47.548;18.828;2023-04-25T09:11:32;97773.53;;;14.45;92.41
51239;BME280;38154;47.548;18.828;2023-04-25T09:14:11;97768.09;;;14.52;86.34
51239;BME280;38154;47.548;18.828;2023-04-25T09:16:49;97768.75;;;14.60;88.20
51239;BME280;38154;47.548;18.828;2023-04-25T09:19:22;97766.97;;;14.89;88.63
51239;BME280;38154;47.548;18.828;2023-04-25T09:21:48;97772.22;;;14.89;87.06
51239;BME280;38154;47.548;18.828;2023-04-25T09:24:14;97760.97;;;14.85;84.04
51239;BME280;38154;47.548;18.828;2023-04-25T09:26:40;97764.50;;;15.11;84.58
51239;BME280;38154;47.548;18.828;2023-04-25T09:29:06;97766.53;;;15.28;80.32
51239;BME280;38154;47.548;18.828;2023-04-25T09:31:34;97764.47;;;15.37;83.02
51239;BME280;38154;47.548;18.828;2023-04-25T09:34:00;97770.91;;;15.29;81.77
51239;BME280;38154;47.548;18.828;2023-04-25T09:36:26;97778.31;;;14.89;78.43
51239;BME280;38154;47.548;18.828;2023-04-25T09:38:52;97790.50;;;14.63;81.60
51239;BME280;38154;47.548;18.828;2023-04-25T09:41:22;97776.84;;;14.80;83.28
51239;BME280;38154;47.548;18.828;2023-04-25T09:43:48;97774.22;;;14.80;83.15
51239;BME280;38154;47.548;18.828;2023-04-25T09:46:14;97764.06;;;14.96;83.15
51239;BME280;38154;47.548;18.828;2023-04-25T09:48:40;97768.41;;;14.97;82.13
51239;BME280;38154;47.548;18.828;2023-04-25T09:51:13;97765.31;;;14.84;83.61
51239;BME280;38154;47.548;18.828;2023-04-25T09:53:40;97767.25;;;14.79;79.66
51239;BME280;38154;47.548;18.828;2023-04-25T09:56:07;97776.19;;;15.00;77.00
51239;BME280;38154;47.548;18.828;2023-04-25T09:58:33;97762.53;;;15.43;77.15
51239;BME280;38154;47.548;18.828;2023-04-25T10:01:00;97768.03;;;15.60;71.73
51239;BME280;38154;47.548;18.828;2023-04-25T10:03:27;97771.84;;;15.78;74.45
51239;BME280;38154;47.548;18.828;2023-04-25T10:05:54;97771.91;;;15.50;74.19
51239;BME280;38154;47.548;18.828;2023-04-25T10:08:21;97766.16;;;15.40;74.21
51239;BME280;38154;47.548;18.828;2023-04-25T10:10:48;97767.31;;;15.56;73.39
51239;BME280;38154;47.548;18.828;2023-04-25T10:13:14;97765.22;;;15.41;73.82
51239;BME280;38154;47.548;18.828;2023-04-25T10:15:40;97763.22;;;15.23;73.95
51239;BME280;38154;47.548;18.828;2023-04-25T10:18:06;97775.16;;;15.31;77.54
51239;BME280;38154;47.548;18.828;2023-04-25T10:20:32;97765.13;;;15.17;74.64
51239;BME280;38154;47.548;18.828;2023-04-25T10:23:00;97764.72;;;15.30;74.29
51239;BME280;38154;47.548;18.828;2023-04-25T10:25:28;97775.91;;;15.35;74.71
51239;BME280;38154;47.548;18.828;2023-04-25T10:27:54;97776.72;;;15.64;72.30
51239;BME280;38154;47.548;18.828;2023-04-25T10:30:20;97783.34;;;15.75;71.01
51239;BME280;38154;47.548;18.828;2023-04-25T10:32:46;97784.19;;;16.00;71.40
51239;BME280;38154;47.548;18.828;2023-04-25T10:35:13;97781.63;;;16.22;68.64
51239;BME280;38154;47.548;18.828;2023-04-25T10:40:24;97777.19;;;17.34;63.87
51239;BME280;38154;47.548;18.828;2023-04-25T10:42:53;97779.25;;;18.29;60.42
51239;BME280;38154;47.548;18.828;2023-04-25T10:45:22;97788.91;;;19.76;51.75
51239;BME280;38154;47.548;18.828;2023-04-25T10:47:48;97773.69;;;20.62;47.07
51239;BME280;38154;47.548;18.828;2023-04-25T10:50:17;97782.59;;;20.93;47.08
51239;BME280;38154;47.548;18.828;2023-04-25T10:52:42;97781.75;;;21.39;46.29
51239;BME280;38154;47.548;18.828;2023-04-25T10:55:09;97779.31;;;21.20;44.10
51239;BME280;38154;47.548;18.828;2023-04-25T11:00:05;97781.72;;;22.42;43.44
51239;BME280;38154;47.548;18.828;2023-04-25T11:02:31;97790.22;;;23.04;42.24
51239;BME280;38154;47.548;18.828;2023-04-25T11:04:56;97789.94;;;22.67;40.31
51239;BME280;38154;47.548;18.828;2023-04-25T11:09:54;97782.84;;;22.10;40.62
51239;BME280;38154;47.548;18.828;2023-04-25T11:12:19;97791.97;;;21.61;42.06
51239;BME280;38154;47.548;18.828;2023-04-25T11:14:45;97788.34;;;21.47;40.00
51239;BME280;38154;47.548;18.828;2023-04-25T11:17:11;97791.00;;;20.85;42.15
51239;BME280;38154;47.548;18.828;2023-04-25T11:19:37;97790.22;;;20.67;41.85
51239;BME280;38154;47.548;18.828;2023-04-25T11:22:02;97803.06;;;19.75;43.13
51239;BME280;38154;47.548;18.828;2023-04-25T11:24:29;97800.47;;;19.02;43.57
51239;BME280;38154;47.548;18.828;2023-04-25T11:26:55;97802.16;;;18.28;45.55
51239;BME280;38154;47.548;18.828;2023-04-25T11:29:26;97803.06;;;17.88;47.70
51239;BME280;38154;47.548;18.828;2023-04-25T11:31:52;97809.00;;;17.52;48.29
51239;BME280;38154;47.548;18.828;2023-04-25T11:34:19;97813.47;;;17.50;50.27
51239;BME280;38154;47.548;18.828;2023-04-25T11:36:45;97818.75;;;17.28;52.14
51239;BME280;38154;47.548;18.828;2023-04-25T11:39:11;97824.62;;;17.56;51.57
51239;BME280;38154;47.548;18.828;2023-04-25T11:41:37;97825.03;;;18.28;52.38
51239;BME280;38154;47.548;18.828;2023-04-25T11:44:03;97832.12;;;19.03;50.56
51239;BME280;38154;47.548;18.828;2023-04-25T11:46:29;97824.66;;;20.00;48.20
51239;BME280;38154;47.548;18.828;2023-04-25T11:48:55;97827.47;;;20.31;47.46
51239;BME280;38154;47.548;18.828;2023-04-25T11:51:21;97846.47;;;21.66;42.58
51239;BME280;38154;47.548;18.828;2023-04-25T11:53:46;97836.91;;;22.23;41.67
51239;BME280;38154;47.548;18.828;2023-04-25T11:56:12;97843.63;;;22.86;39.52
51239;BME280;38154;47.548;18.828;2023-04-25T11:58:54;97841.53;;;22.05;38.99
51239;BME280;38154;47.548;18.828;2023-04-25T12:01:29;97844.37;;;22.74;37.90
51239;BME280;38154;47.548;18.828;2023-04-25T12:03:58;97844.56;;;22.85;38.71
51239;BME280;38154;47.548;18.828;2023-04-25T12:06:29;97845.56;;;22.41;36.62
51239;BME280;38154;47.548;18.828;2023-04-25T12:09:02;97845.16;;;21.11;37.10
51239;BME280;38154;47.548;18.828;2023-04-25T12:11:29;97847.41;;;20.54;38.86
51239;BME280;38154;47.548;18.828;2023-04-25T12:13:55;97829.66;;;20.23;40.32
51239;BME280;38154;47.548;18.828;2023-04-25T12:16:20;97838.22;;;19.23;41.05
51239;BME280;38154;47.548;18.828;2023-04-25T12:18:46;97832.19;;;19.02;43.49
51239;BME280;38154;47.548;18.828;2023-04-25T12:21:12;97824.78;;;18.91;44.96
51239;BME280;38154;47.548;18.828;2023-04-25T12:23:38;97828.69;;;18.63;45.11
51239;BME280;38154;47.548;18.828;2023-04-25T12:26:05;97828.63;;;18.65;46.72
51239;BME280;38154;47.548;18.828;2023-04-25T12:28:31;97818.09;;;18.84;44.84
51239;BME280;38154;47.548;18.828;2023-04-25T12:31:02;97822.44;;;19.21;46.12
51239;BME280;38154;47.548;18.828;2023-04-25T12:33:29;97823.72;;;18.57;46.22
51239;BME280;38154;47.548;18.828;2023-04-25T12:35:56;97820.84;;;18.62;47.43
51239;BME280;38154;47.548;18.828;2023-04-25T12:38:25;97816.78;;;18.73;44.40
51239;BME280;38154;47.548;18.828;2023-04-25T12:40:51;97810.94;;;18.86;45.78
51239;BME280;38154;47.548;18.828;2023-04-25T12:43:16;97803.03;;;18.67;47.15
51239;BME280;38154;47.548;18.828;2023-04-25T12:45:43;97795.28;;;18.43;47.65
51239;BME280;38154;47.548;18.828;2023-04-25T12:48:09;97796.19;;;18.04;46.70
51239;BME280;38154;47.548;18.828;2023-04-25T12:50:35;97794.47;;;17.83;48.65